x

Lake St Clair (45147) Wave Buoy

1:00am - Fri 1st Aug 2014 All times are CDT. -5 hours from GMT.

  • Sig Wave height 0.7ft
  • Peak Period 2s
  • Wind
    4mph
  • Air Temp 69°f
  • Sea Pressure 1017mb
  • Lake St Clair
  • Lake St Clair

More Historic Weather Station data

Upgrade to MSW Pro to gain access to the past 30 days of data for over 8000 Wavebouys and Weather Stations around the globe.

Join Pro

Comparision Forecast

View Surf forecast
   
Fri 08/01 1:00am 0.7ft 2s 4
mph
1017mb 69f
12:00am 0.7ft 2s 7
mph
1017.1mb 69f
Thu 07/31 11:00pm 0.7ft 2s 9
mph
1016.8mb 70f
10:00pm 0.7ft 2s 9 11 mph 1016.5mb 70f
9:00pm 0.7ft 2s 7 9 mph 1016.2mb 71f
8:00pm 0.7ft 2s 9
mph
1015.9mb 72f
7:00pm 1ft 3s 9
mph
1015.7mb 73f
6:00pm 1.3ft 3s 13 20 mph 1015.5mb 72f
4:00pm 1ft 3s 13 16 mph 1015.8mb 73f
3:00pm 1ft 3s 11 16 mph 1016mb 72f
2:00pm 1ft 2s 13 16 mph 1016.1mb 72f
1:00pm 0.3ft  -  7 13 mph 1016.4mb 71f
12:00pm 0.3ft  -  7 9 mph 1016.7mb 68f
11:00am 0.7ft 2s 4 7 mph 1016.9mb 66f
10:00am 1ft 2s 7 9 mph 1016.6mb 65f
9:00am 1ft 2s 9 11 mph 1016.6mb 64f
8:00am 1.3ft 2s 9
mph
1016.2mb 64f
7:00am 1ft 3s 11 13 mph 1015.9mb 62f
6:00am 1ft 3s 11 13 mph 1015.3mb 62f
5:00am 1.3ft  -  11 13 mph 1015mb 62f
4:00am 1.3ft  -  13 16 mph 1014.6mb 64f
3:00am 1.3ft  -  16 18 mph 1014.3mb 64f
2:00am 1.6ft 3s 16 18 mph 1014.2mb 65f
1:00am 1ft 2s 11 16 mph 1014.8mb 66f
12:00am 0.7ft  -  9 11 mph 1014.7mb 66f
Wed 07/30 11:00pm 0.7ft 2s 7 9 mph 1014.7mb 67f
10:00pm 0.7ft  -  7 9 mph 1015.1mb 66f
9:00pm 0.3ft  -  9 11 mph 1014.9mb 68f
8:00pm 0.3ft  -  9
mph
1014.7mb 67f
7:00pm 0.3ft 2s 7 11 mph 1015.3mb 64f
6:00pm 0.3ft 2s 4 7 mph 1014.1mb 69f
5:00pm 0.3ft 2s 4 7 mph 1014.3mb 69f
4:00pm 0.3ft 2s 4 7 mph 1014.4mb 68f
3:00pm 0.3ft 2s 2 4 mph 1014.9mb 68f
2:00pm 0.3ft 2s 7 9 mph 1014.9mb 67f
1:00pm 0.3ft 2s 2 4 mph 1015.5mb 66f
12:00pm 0.3ft 2s 2
mph
1015.8mb 66f
11:00am 0.3ft 2s 4 7 mph 1015.9mb 65f
10:00am 0.7ft 2s 4 7 mph 1015.8mb 64f
9:00am 0.7ft 2s 4 9 mph 1015.5mb 63f
8:00am 0.7ft 2s 7 9 mph 1015.1mb 63f
7:00am 0.7ft 2s 9
mph
1014.7mb 63f
6:00am 0.7ft 2s 9 11 mph 1014.4mb 63f
3:00am 0.7ft  -  9
mph
1013.8mb 64f
2:00am 0.7ft 2s 9
mph
1013.8mb 65f
Tue 07/29 11:00pm 1ft 2s 16 20 mph 1013.7mb 66f
10:00pm 0.7ft 2s 11 13 mph 1014.1mb 68f
9:00pm 0.7ft 2s 9 11 mph 1013.9mb 67f
8:00pm 1ft 2s 9 11 mph 1013.8mb 68f
7:00pm 1.3ft 3s 13 18 mph 1013.8mb 67f
6:00pm 1ft 3s 13 18 mph 1013.5mb 70f
5:00pm 1ft 3s 11 13 mph 1013.6mb 70f
4:00pm 1.3ft 2s 13 18 mph 1013.8mb 69f
3:00pm 1.3ft 3s 11 16 mph 1014.1mb 69f
2:00pm 1ft  -  13 16 mph 1014.3mb 68f
1:00pm 1ft 2s 11 13 mph 1014.7mb 67f
12:00pm 0.7ft  -  11 13 mph 1015.2mb 66f
11:00am 0.7ft 2s 7 11 mph 1015.6mb 64f
10:00am 0.7ft 2s 9 11 mph 1015.6mb 63f
9:00am 1ft 3s 9 13 mph 1015.4mb 62f
8:00am 1.3ft 3s 11 13 mph 1015.4mb 61f
7:00am 1.3ft 3s 16 18 mph 1015mb 60f
6:00am 1ft 3s 9 13 mph 1014.5mb 61f
5:00am  -   -  13
mph
- -
4:00am 1.3ft 3s 13 16 mph 1014.5mb 61f
3:00am 1.3ft 3s 11 16 mph 1014.3mb 61f
2:00am 1.6ft 3s 16 20 mph 1014.5mb 61f
1:00am 1.3ft  -  13 16 mph 1014.8mb 61f
12:00am 1.3ft  -  13 18 mph 1014.7mb 61f
Mon 07/28 11:00pm 1.3ft 3s 13 16 mph 1014.9mb 61f
10:00pm 1.6ft 3s 16 20 mph 1015.5mb 61f
9:00pm 1.6ft  -  18 22 mph 1014.9mb 61f
7:00pm  -   -  18
mph
- -
6:00pm 1.6ft  -  18 20 mph 1014mb 63f
5:00pm 1.6ft  -  18 22 mph 1013.7mb 62f
4:00pm 1.3ft  -  13 18 mph 1013.4mb 63f
3:00pm 1.6ft  -  16 20 mph 1013.2mb 63f
1:00pm  -   -  20
mph
- 62f
12:00pm 2ft  -  20 25 mph 1012.3mb 63f
11:00am 2.5ft  -  22 27 mph 1011.5mb 63f
10:00am 2.5ft  -  22
mph
1010.4mb 64f
9:00am 2.5ft 3s 22 29 mph 1009.6mb 64f